sensor_id;sensor_type;location;lat;lon;timestamp;temperature;humidity
7232;DHT22;3657;49.630;11.018;2023-02-28T00:00:10;-0.30;99.90
7232;DHT22;3657;49.630;11.018;2023-02-28T00:02:37;-0.30;99.90
7232;DHT22;3657;49.630;11.018;2023-02-28T00:05:05;-0.30;99.90
7232;DHT22;3657;49.630;11.018;2023-02-28T00:07:32;-0.30;99.90
7232;DHT22;3657;49.630;11.018;2023-02-28T00:09:59;-0.30;99.90
7232;DHT22;3657;49.630;11.018;2023-02-28T00:12:26;-0.40;99.90
7232;DHT22;3657;49.630;11.018;2023-02-28T00:14:54;-0.40;99.90
7232;DHT22;3657;49.630;11.018;2023-02-28T00:17:21;-0.40;99.90
7232;DHT22;3657;49.630;11.018;2023-02-28T00:19:48;-0.40;99.90
7232;DHT22;3657;49.630;11.018;2023-02-28T00:22:15;-0.50;99.90
7232;DHT22;3657;49.630;11.018;2023-02-28T00:24:42;-0.50;99.90
7232;DHT22;3657;49.630;11.018;2023-02-28T00:27:09;-0.50;99.90
7232;DHT22;3657;49.630;11.018;2023-02-28T00:29:36;-0.50;99.90
7232;DHT22;3657;49.630;11.018;2023-02-28T00:32:05;-0.50;99.90
7232;DHT22;3657;49.630;11.018;2023-02-28T00:34:32;-0.50;99.90
7232;DHT22;3657;49.630;11.018;2023-02-28T00:37:03;-0.50;99.90
7232;DHT22;3657;49.630;11.018;2023-02-28T00:39:30;-0.50;99.90
7232;DHT22;3657;49.630;11.018;2023-02-28T00:41:56;-0.60;99.90
7232;DHT22;3657;49.630;11.018;2023-02-28T00:44:23;-0.50;99.90
7232;DHT22;3657;49.630;11.018;2023-02-28T00:46:50;-0.60;99.90
7232;DHT22;3657;49.630;11.018;2023-02-28T00:49:18;-0.60;99.90
7232;DHT22;3657;49.630;11.018;2023-02-28T00:51:45;-0.60;99.90
7232;DHT22;3657;49.630;11.018;2023-02-28T00:54:11;-0.60;99.90
7232;DHT22;3657;49.630;11.018;2023-02-28T00:56:38;-0.60;99.90
7232;DHT22;3657;49.630;11.018;2023-02-28T00:59:05;-0.60;99.90
7232;DHT22;3657;49.630;11.018;2023-02-28T01:01:32;-0.70;99.90
7232;DHT22;3657;49.630;11.018;2023-02-28T01:03:58;-0.70;99.90
7232;DHT22;3657;49.630;11.018;2023-02-28T01:06:26;-0.80;99.90
7232;DHT22;3657;49.630;11.018;2023-02-28T01:08:53;-0.80;99.90
7232;DHT22;3657;49.630;11.018;2023-02-28T01:11:20;-0.80;99.90
7232;DHT22;3657;49.630;11.018;2023-02-28T01:13:46;-0.80;99.90
7232;DHT22;3657;49.630;11.018;2023-02-28T01:16:13;-0.80;99.90
7232;DHT22;3657;49.630;11.018;2023-02-28T01:18:40;-0.90;99.90
7232;DHT22;3657;49.630;11.018;2023-02-28T01:21:09;-0.90;99.90
7232;DHT22;3657;49.630;11.018;2023-02-28T01:23:38;-0.90;99.90
7232;DHT22;3657;49.630;11.018;2023-02-28T01:26:05;-0.90;99.90
7232;DHT22;3657;49.630;11.018;2023-02-28T01:28:32;-0.90;99.90
7232;DHT22;3657;49.630;11.018;2023-02-28T01:30:59;-0.90;99.90
7232;DHT22;3657;49.630;11.018;2023-02-28T01:33:26;-1.00;99.90
7232;DHT22;3657;49.630;11.018;2023-02-28T01:35:58;-1.00;99.90
7232;DHT22;3657;49.630;11.018;2023-02-28T01:38:24;-1.00;99.90
7232;DHT22;3657;49.630;11.018;2023-02-28T01:40:53;-1.00;99.90
7232;DHT22;3657;49.630;11.018;2023-02-28T01:43:23;-1.00;99.90
7232;DHT22;3657;49.630;11.018;2023-02-28T01:45:50;-1.00;99.90
7232;DHT22;3657;49.630;11.018;2023-02-28T01:48:17;-1.00;99.90
7232;DHT22;3657;49.630;11.018;2023-02-28T01:50:47;-1.10;99.90
7232;DHT22;3657;49.630;11.018;2023-02-28T01:53:17;-1.00;99.90
7232;DHT22;3657;49.630;11.018;2023-02-28T01:55:49;-1.10;99.90
7232;DHT22;3657;49.630;11.018;2023-02-28T01:58:18;-1.10;99.90
7232;DHT22;3657;49.630;11.018;2023-02-28T02:00:45;-1.10;99.90
7232;DHT22;3657;49.630;11.018;2023-02-28T02:03:14;-1.10;99.90
7232;DHT22;3657;49.630;11.018;2023-02-28T02:05:45;-1.10;99.90
7232;DHT22;3657;49.630;11.018;2023-02-28T02:08:15;-1.10;99.90
7232;DHT22;3657;49.630;11.018;2023-02-28T02:10:44;-1.20;99.90
7232;DHT22;3657;49.630;11.018;2023-02-28T02:13:22;-1.20;99.90
7232;DHT22;3657;49.630;11.018;2023-02-28T02:16:00;-1.20;99.90
7232;DHT22;3657;49.630;11.018;2023-02-28T02:18:33;-1.20;99.90
7232;DHT22;3657;49.630;11.018;2023-02-28T02:21:42;-1.20;99.90
7232;DHT22;3657;49.630;11.018;2023-02-28T02:24:36;-1.20;99.90
7232;DHT22;3657;49.630;11.018;2023-02-28T02:27:32;-1.20;99.90
7232;DHT22;3657;49.630;11.018;2023-02-28T02:30:27;-1.20;99.90
7232;DHT22;3657;49.630;11.018;2023-02-28T02:36:13;-1.30;99.90
7232;DHT22;3657;49.630;11.018;2023-02-28T02:38:47;-1.40;99.90
7232;DHT22;3657;49.630;11.018;2023-02-28T02:41:19;-1.40;99.90
7232;DHT22;3657;49.630;11.018;2023-02-28T02:43:52;-1.40;99.90
7232;DHT22;3657;49.630;11.018;2023-02-28T02:46:20;-1.40;99.90
7232;DHT22;3657;49.630;11.018;2023-02-28T02:48:48;-1.40;99.90
7232;DHT22;3657;49.630;11.018;2023-02-28T02:51:19;-1.50;99.90
7232;DHT22;3657;49.630;11.018;2023-02-28T02:53:50;-1.50;99.90
7232;DHT22;3657;49.630;11.018;2023-02-28T02:56:18;-1.50;99.90
7232;DHT22;3657;49.630;11.018;2023-02-28T02:58:47;-1.50;99.90
7232;DHT22;3657;49.630;11.018;2023-02-28T03:01:18;-1.50;99.90
7232;DHT22;3657;49.630;11.018;2023-02-28T03:03:55;-1.50;99.90
7232;DHT22;3657;49.630;11.018;2023-02-28T03:06:23;-1.60;99.90
7232;DHT22;3657;49.630;11.018;2023-02-28T03:08:50;-1.60;99.90
7232;DHT22;3657;49.630;11.018;2023-02-28T03:11:17;-1.60;99.90
7232;DHT22;3657;49.630;11.018;2023-02-28T03:13:58;-1.60;99.90
7232;DHT22;3657;49.630;11.018;2023-02-28T03:16:33;-1.60;99.90
7232;DHT22;3657;49.630;11.018;2023-02-28T03:19:19;-1.60;99.90
7232;DHT22;3657;49.630;11.018;2023-02-28T03:21:57;-1.60;99.90
7232;DHT22;3657;49.630;11.018;2023-02-28T03:24:31;-1.60;99.90
7232;DHT22;3657;49.630;11.018;2023-02-28T03:27:06;-1.70;99.90
7232;DHT22;3657;49.630;11.018;2023-02-28T03:29:37;-1.70;99.90
7232;DHT22;3657;49.630;11.018;2023-02-28T03:32:10;-1.70;99.90
7232;DHT22;3657;49.630;11.018;2023-02-28T03:34:48;-1.80;99.90
7232;DHT22;3657;49.630;11.018;2023-02-28T03:37:20;-1.80;99.90
7232;DHT22;3657;49.630;11.018;2023-02-28T03:39:53;-1.80;99.90
7232;DHT22;3657;49.630;11.018;2023-02-28T03:42:23;-1.80;99.90
7232;DHT22;3657;49.630;11.018;2023-02-28T03:44:55;-1.80;99.90
7232;DHT22;3657;49.630;11.018;2023-02-28T03:47:25;-1.90;99.90
7232;DHT22;3657;49.630;11.018;2023-02-28T03:49:56;-1.90;99.90
7232;DHT22;3657;49.630;11.018;2023-02-28T03:52:29;-2.00;99.90
7232;DHT22;3657;49.630;11.018;2023-02-28T03:55:02;-2.00;99.90
7232;DHT22;3657;49.630;11.018;2023-02-28T03:57:34;-2.00;99.90
7232;DHT22;3657;49.630;11.018;2023-02-28T04:00:06;-2.00;99.90
7232;DHT22;3657;49.630;11.018;2023-02-28T04:02:35;-2.00;99.90
7232;DHT22;3657;49.630;11.018;2023-02-28T04:05:01;-2.00;99.90
7232;DHT22;3657;49.630;11.018;2023-02-28T04:07:30;-2.00;99.90
7232;DHT22;3657;49.630;11.018;2023-02-28T04:09:58;-2.00;99.90
7232;DHT22;3657;49.630;11.018;2023-02-28T04:12:25;-2.10;99.90
7232;DHT22;3657;49.630;11.018;2023-02-28T04:14:52;-2.10;99.90
7232;DHT22;3657;49.630;11.018;2023-02-28T04:17:18;-2.10;99.90
7232;DHT22;3657;49.630;11.018;2023-02-28T04:19:45;-2.10;99.90
7232;DHT22;3657;49.630;11.018;2023-02-28T04:22:11;-2.10;99.90
7232;DHT22;3657;49.630;11.018;2023-02-28T04:24:40;-2.10;99.90
7232;DHT22;3657;49.630;11.018;2023-02-28T04:27:08;-2.10;99.90
7232;DHT22;3657;49.630;11.018;2023-02-28T04:29:35;-2.10;99.90
7232;DHT22;3657;49.630;11.018;2023-02-28T04:32:02;-2.10;99.90
7232;DHT22;3657;49.630;11.018;2023-02-28T04:34:31;-2.20;99.90
7232;DHT22;3657;49.630;11.018;2023-02-28T04:36:58;-2.30;99.90
7232;DHT22;3657;49.630;11.018;2023-02-28T04:39:25;-2.30;99.90
7232;DHT22;3657;49.630;11.018;2023-02-28T04:41:53;-2.30;99.90
7232;DHT22;3657;49.630;11.018;2023-02-28T04:44:20;-2.40;99.90
7232;DHT22;3657;49.630;11.018;2023-02-28T04:46:48;-2.40;99.90
7232;DHT22;3657;49.630;11.018;2023-02-28T04:49:15;-2.40;99.90
7232;DHT22;3657;49.630;11.018;2023-02-28T04:51:42;-2.40;99.90
7232;DHT22;3657;49.630;11.018;2023-02-28T04:54:09;-2.40;99.90
7232;DHT22;3657;49.630;11.018;2023-02-28T04:56:35;-2.40;99.90
7232;DHT22;3657;49.630;11.018;2023-02-28T04:59:03;-2.40;99.90
7232;DHT22;3657;49.630;11.018;2023-02-28T05:01:32;-2.40;99.90
7232;DHT22;3657;49.630;11.018;2023-02-28T05:04:01;-2.40;99.90
7232;DHT22;3657;49.630;11.018;2023-02-28T05:06:31;-2.40;99.90
7232;DHT22;3657;49.630;11.018;2023-02-28T05:08:59;-2.50;99.90
7232;DHT22;3657;49.630;11.018;2023-02-28T05:11:27;-2.40;99.90
7232;DHT22;3657;49.630;11.018;2023-02-28T05:13:54;-2.40;99.90
7232;DHT22;3657;49.630;11.018;2023-02-28T05:16:22;-2.40;99.90
7232;DHT22;3657;49.630;11.018;2023-02-28T05:18:49;-2.50;99.90
7232;DHT22;3657;49.630;11.018;2023-02-28T05:21:28;-2.50;99.90
7232;DHT22;3657;49.630;11.018;2023-02-28T05:23:56;-2.50;99.90
7232;DHT22;3657;49.630;11.018;2023-02-28T05:26:23;-2.50;99.90
7232;DHT22;3657;49.630;11.018;2023-02-28T05:28:50;-2.50;99.90
7232;DHT22;3657;49.630;11.018;2023-02-28T05:31:16;-2.50;99.90
7232;DHT22;3657;49.630;11.018;2023-02-28T05:33:44;-2.50;99.90
7232;DHT22;3657;49.630;11.018;2023-02-28T05:36:11;-2.50;99.90
7232;DHT22;3657;49.630;11.018;2023-02-28T05:38:38;-2.50;99.90
7232;DHT22;3657;49.630;11.018;2023-02-28T05:41:06;-2.50;99.90
7232;DHT22;3657;49.630;11.018;2023-02-28T05:43:33;-2.50;99.90
7232;DHT22;3657;49.630;11.018;2023-02-28T05:46:03;-2.60;99.90
7232;DHT22;3657;49.630;11.018;2023-02-28T05:48:29;-2.60;99.90
7232;DHT22;3657;49.630;11.018;2023-02-28T05:50:58;-2.50;99.90
7232;DHT22;3657;49.630;11.018;2023-02-28T05:53:25;-2.60;99.90
7232;DHT22;3657;49.630;11.018;2023-02-28T05:55:52;-2.60;99.90
7232;DHT22;3657;49.630;11.018;2023-02-28T05:58:19;-2.60;99.90
7232;DHT22;3657;49.630;11.018;2023-02-28T06:00:45;-2.60;99.90
7232;DHT22;3657;49.630;11.018;2023-02-28T06:03:12;-2.60;99.90
7232;DHT22;3657;49.630;11.018;2023-02-28T06:05:39;-2.60;99.90
7232;DHT22;3657;49.630;11.018;2023-02-28T06:08:07;-2.60;99.90
7232;DHT22;3657;49.630;11.018;2023-02-28T06:10:33;-2.60;99.90
7232;DHT22;3657;49.630;11.018;2023-02-28T06:13:00;-2.60;99.90
7232;DHT22;3657;49.630;11.018;2023-02-28T06:15:28;-2.60;99.90
7232;DHT22;3657;49.630;11.018;2023-02-28T06:17:56;-2.60;99.90
7232;DHT22;3657;49.630;11.018;2023-02-28T06:20:23;-2.60;99.90
7232;DHT22;3657;49.630;11.018;2023-02-28T06:22:51;-2.70;99.90
7232;DHT22;3657;49.630;11.018;2023-02-28T06:25:21;-2.70;99.90
7232;DHT22;3657;49.630;11.018;2023-02-28T06:27:48;-2.80;99.90
7232;DHT22;3657;49.630;11.018;2023-02-28T06:30:15;-2.70;99.90
7232;DHT22;3657;49.630;11.018;2023-02-28T06:32:41;-2.80;99.90
7232;DHT22;3657;49.630;11.018;2023-02-28T06:35:08;-2.80;99.90
7232;DHT22;3657;49.630;11.018;2023-02-28T06:37:35;-2.80;99.90
7232;DHT22;3657;49.630;11.018;2023-02-28T06:40:02;-2.80;99.90
7232;DHT22;3657;49.630;11.018;2023-02-28T06:42:32;-2.80;99.90
7232;DHT22;3657;49.630;11.018;2023-02-28T06:44:59;-2.70;99.90
7232;DHT22;3657;49.630;11.018;2023-02-28T06:47:30;-2.60;99.90
7232;DHT22;3657;49.630;11.018;2023-02-28T06:49:56;-2.60;99.90
7232;DHT22;3657;49.630;11.018;2023-02-28T06:52:23;-2.50;99.90
7232;DHT22;3657;49.630;11.018;2023-02-28T06:54:50;-2.40;99.90
7232;DHT22;3657;49.630;11.018;2023-02-28T06:57:25;-2.40;99.90
7232;DHT22;3657;49.630;11.018;2023-02-28T06:59:53;-2.30;99.90
7232;DHT22;3657;49.630;11.018;2023-02-28T07:02:19;-2.30;99.90
7232;DHT22;3657;49.630;11.018;2023-02-28T07:04:46;-2.30;99.90
7232;DHT22;3657;49.630;11.018;2023-02-28T07:07:13;-2.30;99.90
7232;DHT22;3657;49.630;11.018;2023-02-28T07:09:39;-2.20;99.90
7232;DHT22;3657;49.630;11.018;2023-02-28T07:12:06;-2.20;99.90
7232;DHT22;3657;49.630;11.018;2023-02-28T07:14:33;-2.20;99.90
7232;DHT22;3657;49.630;11.018;2023-02-28T07:17:01;-2.20;99.90
7232;DHT22;3657;49.630;11.018;2023-02-28T07:19:27;-2.20;99.90
7232;DHT22;3657;49.630;11.018;2023-02-28T07:21:54;-2.20;99.90
7232;DHT22;3657;49.630;11.018;2023-02-28T07:24:21;-2.10;99.90
7232;DHT22;3657;49.630;11.018;2023-02-28T07:26:51;-2.10;99.90
7232;DHT22;3657;49.630;11.018;2023-02-28T07:29:17;-2.10;99.90
7232;DHT22;3657;49.630;11.018;2023-02-28T07:31:44;-2.00;99.90
7232;DHT22;3657;49.630;11.018;2023-02-28T07:34:13;-2.00;99.90
7232;DHT22;3657;49.630;11.018;2023-02-28T07:36:40;-1.90;99.90
7232;DHT22;3657;49.630;11.018;2023-02-28T07:39:06;-1.90;99.90
7232;DHT22;3657;49.630;11.018;2023-02-28T07:41:34;-1.80;99.90
7232;DHT22;3657;49.630;11.018;2023-02-28T07:44:04;-1.80;99.90
7232;DHT22;3657;49.630;11.018;2023-02-28T07:46:31;-1.70;99.90
7232;DHT22;3657;49.630;11.018;2023-02-28T07:49:00;-1.60;99.90
7232;DHT22;3657;49.630;11.018;2023-02-28T07:51:29;-1.60;99.90
7232;DHT22;3657;49.630;11.018;2023-02-28T07:53:57;-1.50;99.90
7232;DHT22;3657;49.630;11.018;2023-02-28T07:56:23;-1.50;99.90
7232;DHT22;3657;49.630;11.018;2023-02-28T07:58:50;-1.60;99.90
7232;DHT22;3657;49.630;11.018;2023-02-28T08:01:17;-1.60;99.90
7232;DHT22;3657;49.630;11.018;2023-02-28T08:03:44;-1.50;99.90
7232;DHT22;3657;49.630;11.018;2023-02-28T08:06:16;-1.40;99.90
7232;DHT22;3657;49.630;11.018;2023-02-28T08:08:45;-1.30;99.90
7232;DHT22;3657;49.630;11.018;2023-02-28T08:11:12;-1.30;99.90
7232;DHT22;3657;49.630;11.018;2023-02-28T08:13:39;-1.20;99.90
7232;DHT22;3657;49.630;11.018;2023-02-28T08:16:07;-1.20;99.90
7232;DHT22;3657;49.630;11.018;2023-02-28T08:18:34;-1.10;99.90
7232;DHT22;3657;49.630;11.018;2023-02-28T08:21:06;-1.00;99.90
7232;DHT22;3657;49.630;11.018;2023-02-28T08:23:32;-0.80;99.90
7232;DHT22;3657;49.630;11.018;2023-02-28T08:26:02;-0.70;99.90
7232;DHT22;3657;49.630;11.018;2023-02-28T08:28:29;-0.60;99.90
7232;DHT22;3657;49.630;11.018;2023-02-28T08:30:56;-0.50;99.90
7232;DHT22;3657;49.630;11.018;2023-02-28T08:33:22;-0.50;99.90
7232;DHT22;3657;49.630;11.018;2023-02-28T08:35:52;-0.30;99.90
7232;DHT22;3657;49.630;11.018;2023-02-28T08:38:20;-0.20;99.90
7232;DHT22;3657;49.630;11.018;2023-02-28T08:40:46;-0.20;99.90
7232;DHT22;3657;49.630;11.018;2023-02-28T08:43:14;0.00;99.90
7232;DHT22;3657;49.630;11.018;2023-02-28T08:45:41;0.10;99.90
7232;DHT22;3657;49.630;11.018;2023-02-28T08:48:08;0.10;99.90
7232;DHT22;3657;49.630;11.018;2023-02-28T08:50:34;0.20;99.90
7232;DHT22;3657;49.630;11.018;2023-02-28T08:53:01;0.30;99.90
7232;DHT22;3657;49.630;11.018;2023-02-28T08:55:27;0.10;99.90
7232;DHT22;3657;49.630;11.018;2023-02-28T08:57:54;0.00;99.90
7232;DHT22;3657;49.630;11.018;2023-02-28T09:00:23;0.10;99.90
7232;DHT22;3657;49.630;11.018;2023-02-28T09:02:49;0.30;99.90
7232;DHT22;3657;49.630;11.018;2023-02-28T09:05:17;0.50;99.90
7232;DHT22;3657;49.630;11.018;2023-02-28T09:07:43;0.30;99.90
7232;DHT22;3657;49.630;11.018;2023-02-28T09:10:10;0.70;99.90
7232;DHT22;3657;49.630;11.018;2023-02-28T09:12:37;0.70;99.90
7232;DHT22;3657;49.630;11.018;2023-02-28T09:15:05;0.70;99.90
7232;DHT22;3657;49.630;11.018;2023-02-28T09:17:34;1.10;99.90
7232;DHT22;3657;49.630;11.018;2023-02-28T09:20:00;1.70;99.90
7232;DHT22;3657;49.630;11.018;2023-02-28T09:22:27;2.00;99.90
7232;DHT22;3657;49.630;11.018;2023-02-28T09:24:54;2.20;99.90
7232;DHT22;3657;49.630;11.018;2023-02-28T09:27:20;2.10;99.90
7232;DHT22;3657;49.630;11.018;2023-02-28T09:29:47;1.90;99.90
7232;DHT22;3657;49.630;11.018;2023-02-28T09:32:14;1.90;99.90
7232;DHT22;3657;49.630;11.018;2023-02-28T09:34:42;1.60;99.90
7232;DHT22;3657;49.630;11.018;2023-02-28T09:37:09;1.20;99.90
7232;DHT22;3657;49.630;11.018;2023-02-28T09:39:35;1.10;99.90
7232;DHT22;3657;49.630;11.018;2023-02-28T09:42:03;1.30;99.90
7232;DHT22;3657;49.630;11.018;2023-02-28T09:44:33;1.30;99.90
7232;DHT22;3657;49.630;11.018;2023-02-28T09:47:07;1.20;99.90
7232;DHT22;3657;49.630;11.018;2023-02-28T09:49:40;1.40;99.90
7232;DHT22;3657;49.630;11.018;2023-02-28T09:52:13;1.20;99.90
7232;DHT22;3657;49.630;11.018;2023-02-28T09:54:40;1.10;99.90
7232;DHT22;3657;49.630;11.018;2023-02-28T09:57:11;1.20;99.90
7232;DHT22;3657;49.630;11.018;2023-02-28T09:59:51;1.30;99.90
7232;DHT22;3657;49.630;11.018;2023-02-28T10:02:39;1.60;99.90
7232;DHT22;3657;49.630;11.018;2023-02-28T10:05:09;1.60;99.90
7232;DHT22;3657;49.630;11.018;2023-02-28T10:07:50;2.10;99.90
7232;DHT22;3657;49.630;11.018;2023-02-28T10:10:23;2.50;99.90
7232;DHT22;3657;49.630;11.018;2023-02-28T10:12:54;2.80;99.90
7232;DHT22;3657;49.630;11.018;2023-02-28T10:15:24;3.10;98.70
7232;DHT22;3657;49.630;11.018;2023-02-28T10:17:56;3.00;99.90
7232;DHT22;3657;49.630;11.018;2023-02-28T10:20:24;2.80;99.90
7232;DHT22;3657;49.630;11.018;2023-02-28T10:23:00;2.30;99.90
7232;DHT22;3657;49.630;11.018;2023-02-28T10:25:33;2.20;99.90
7232;DHT22;3657;49.630;11.018;2023-02-28T10:28:08;2.30;99.90
7232;DHT22;3657;49.630;11.018;2023-02-28T10:30:37;2.10;99.90
7232;DHT22;3657;49.630;11.018;2023-02-28T10:33:05;2.00;99.90
7232;DHT22;3657;49.630;11.018;2023-02-28T10:35:31;2.00;99.90
7232;DHT22;3657;49.630;11.018;2023-02-28T10:38:03;2.20;99.90
7232;DHT22;3657;49.630;11.018;2023-02-28T10:40:36;2.20;99.90
7232;DHT22;3657;49.630;11.018;2023-02-28T10:43:04;2.20;99.90
7232;DHT22;3657;49.630;11.018;2023-02-28T10:45:33;2.10;99.90
7232;DHT22;3657;49.630;11.018;2023-02-28T10:48:03;2.00;99.90
7232;DHT22;3657;49.630;11.018;2023-02-28T10:50:38;2.00;99.90
7232;DHT22;3657;49.630;11.018;2023-02-28T10:53:24;2.10;99.90
7232;DHT22;3657;49.630;11.018;2023-02-28T10:55:57;2.50;99.90
7232;DHT22;3657;49.630;11.018;2023-02-28T10:58:25;2.50;99.90
7232;DHT22;3657;49.630;11.018;2023-02-28T11:00:52;2.30;99.90
7232;DHT22;3657;49.630;11.018;2023-02-28T11:03:33;2.40;99.90
7232;DHT22;3657;49.630;11.018;2023-02-28T11:06:06;2.50;99.90
7232;DHT22;3657;49.630;11.018;2023-02-28T11:08:34;2.50;99.90
7232;DHT22;3657;49.630;11.018;2023-02-28T11:11:10;2.40;99.90
7232;DHT22;3657;49.630;11.018;2023-02-28T11:13:37;2.50;99.90
7232;DHT22;3657;49.630;11.018;2023-02-28T11:16:06;2.90;99.90
7232;DHT22;3657;49.630;11.018;2023-02-28T11:18:39;3.00;99.90
7232;DHT22;3657;49.630;11.018;2023-02-28T11:21:08;2.50;99.90
7232;DHT22;3657;49.630;11.018;2023-02-28T11:23:40;2.30;99.90
7232;DHT22;3657;49.630;11.018;2023-02-28T11:26:08;2.50;99.90
7232;DHT22;3657;49.630;11.018;2023-02-28T11:28:37;2.40;99.90
7232;DHT22;3657;49.630;11.018;2023-02-28T11:31:14;2.40;99.90
7232;DHT22;3657;49.630;11.018;2023-02-28T11:33:43;2.60;99.90
7232;DHT22;3657;49.630;11.018;2023-02-28T11:36:13;2.70;99.90
7232;DHT22;3657;49.630;11.018;2023-02-28T11:38:42;2.40;99.90
7232;DHT22;3657;49.630;11.018;2023-02-28T11:44:16;2.30;99.90
7232;DHT22;3657;49.630;11.018;2023-02-28T11:46:48;2.10;99.90
7232;DHT22;3657;49.630;11.018;2023-02-28T11:49:27;2.40;99.90
7232;DHT22;3657;49.630;11.018;2023-02-28T11:52:00;2.40;99.50
7232;DHT22;3657;49.630;11.018;2023-02-28T11:54:51;2.90;99.90
7232;DHT22;3657;49.630;11.018;2023-02-28T11:57:33;2.80;99.90
7232;DHT22;3657;49.630;11.018;2023-02-28T12:00:08;2.70;99.90
7232;DHT22;3657;49.630;11.018;2023-02-28T12:02:55;2.40;99.80
7232;DHT22;3657;49.630;11.018;2023-02-28T12:05:27;3.00;99.90
7232;DHT22;3657;49.630;11.018;2023-02-28T12:08:02;3.30;99.30
7232;DHT22;3657;49.630;11.018;2023-02-28T12:10:37;3.70;99.90
7232;DHT22;3657;49.630;11.018;2023-02-28T12:13:16;4.10;97.70
7232;DHT22;3657;49.630;11.018;2023-02-28T12:18:59;3.70;98.70
7232;DHT22;3657;49.630;11.018;2023-02-28T12:21:36;3.80;98.50
7232;DHT22;3657;49.630;11.018;2023-02-28T12:24:29;4.00;97.90
7232;DHT22;3657;49.630;11.018;2023-02-28T12:27:03;4.30;96.80
7232;DHT22;3657;49.630;11.018;2023-02-28T12:29:37;4.30;97.80
7232;DHT22;3657;49.630;11.018;2023-02-28T12:32:12;4.20;99.70
7232;DHT22;3657;49.630;11.018;2023-02-28T12:34:46;4.20;99.80
7232;DHT22;3657;49.630;11.018;2023-02-28T12:37:17;4.30;99.40
7232;DHT22;3657;49.630;11.018;2023-02-28T12:39:50;4.50;97.30
7232;DHT22;3657;49.630;11.018;2023-02-28T12:42:24;4.50;99.50
7232;DHT22;3657;49.630;11.018;2023-02-28T12:44:58;4.60;99.00
7232;DHT22;3657;49.630;11.018;2023-02-28T12:47:25;4.50;97.80
7232;DHT22;3657;49.630;11.018;2023-02-28T12:49:55;4.30;99.90
7232;DHT22;3657;49.630;11.018;2023-02-28T12:52:28;4.20;98.80
7232;DHT22;3657;49.630;11.018;2023-02-28T12:55:03;4.30;99.70
7232;DHT22;3657;49.630;11.018;2023-02-28T12:57:37;4.40;99.00
7232;DHT22;3657;49.630;11.018;2023-02-28T13:00:11;4.50;97.40
7232;DHT22;3657;49.630;11.018;2023-02-28T13:03:09;4.60;98.60
7232;DHT22;3657;49.630;11.018;2023-02-28T13:06:05;4.60;96.60
7232;DHT22;3657;49.630;11.018;2023-02-28T13:11:31;4.40;99.90
7232;DHT22;3657;49.630;11.018;2023-02-28T13:14:03;4.50;99.90
7232;DHT22;3657;49.630;11.018;2023-02-28T13:16:53;4.50;99.10
7232;DHT22;3657;49.630;11.018;2023-02-28T13:19:22;4.60;99.90
7232;DHT22;3657;49.630;11.018;2023-02-28T13:21:50;4.70;96.80
7232;DHT22;3657;49.630;11.018;2023-02-28T13:24:42;4.80;98.40
7232;DHT22;3657;49.630;11.018;2023-02-28T13:27:31;4.80;95.60
7232;DHT22;3657;49.630;11.018;2023-02-28T13:30:00;5.00;99.90
7232;DHT22;3657;49.630;11.018;2023-02-28T13:32:36;5.00;97.50
7232;DHT22;3657;49.630;11.018;2023-02-28T13:35:38;4.90;99.90
7232;DHT22;3657;49.630;11.018;2023-02-28T13:41:41;4.80;99.90
7232;DHT22;3657;49.630;11.018;2023-02-28T13:44:08;4.80;99.90
7232;DHT22;3657;49.630;11.018;2023-02-28T13:50:15;4.80;99.10
7232;DHT22;3657;49.630;11.018;2023-02-28T13:52:47;5.00;99.90
7232;DHT22;3657;49.630;11.018;2023-02-28T13:55:25;5.00;98.40
7232;DHT22;3657;49.630;11.018;2023-02-28T13:58:03;5.10;99.90
7232;DHT22;3657;49.630;11.018;2023-02-28T14:00:47;5.10;99.90
7232;DHT22;3657;49.630;11.018;2023-02-28T14:03:31;4.80;99.90
7232;DHT22;3657;49.630;11.018;2023-02-28T14:06:15;4.70;99.00
7232;DHT22;3657;49.630;11.018;2023-02-28T14:08:54;4.70;99.90
7232;DHT22;3657;49.630;11.018;2023-02-28T14:11:28;4.60;99.90
7232;DHT22;3657;49.630;11.018;2023-02-28T14:13:56;4.50;99.90
7232;DHT22;3657;49.630;11.018;2023-02-28T14:16:25;4.60;98.90
7232;DHT22;3657;49.630;11.018;2023-02-28T14:18:58;4.60;98.00
7232;DHT22;3657;49.630;11.018;2023-02-28T14:21:27;4.60;99.90
7232;DHT22;3657;49.630;11.018;2023-02-28T14:24:20;4.60;99.90
7232;DHT22;3657;49.630;11.018;2023-02-28T14:27:11;4.70;98.50
7232;DHT22;3657;49.630;11.018;2023-02-28T14:30:07;4.80;97.30
7232;DHT22;3657;49.630;11.018;2023-02-28T14:32:45;4.90;99.60
7232;DHT22;3657;49.630;11.018;2023-02-28T14:35:22;4.90;98.60
7232;DHT22;3657;49.630;11.018;2023-02-28T14:37:54;4.90;97.30
7232;DHT22;3657;49.630;11.018;2023-02-28T14:40:26;4.90;96.60
7232;DHT22;3657;49.630;11.018;2023-02-28T14:42:57;4.90;99.80
7232;DHT22;3657;49.630;11.018;2023-02-28T14:45:28;4.80;97.30
7232;DHT22;3657;49.630;11.018;2023-02-28T14:47:57;4.80;97.10
7232;DHT22;3657;49.630;11.018;2023-02-28T14:50:29;4.80;98.40
7232;DHT22;3657;49.630;11.018;2023-02-28T14:52:57;4.80;97.50
7232;DHT22;3657;49.630;11.018;2023-02-28T14:55:28;4.70;99.30
7232;DHT22;3657;49.630;11.018;2023-02-28T14:57:56;4.80;96.90
7232;DHT22;3657;49.630;11.018;2023-02-28T15:00:25;4.80;96.90
7232;DHT22;3657;49.630;11.018;2023-02-28T15:02:52;4.80;98.10
7232;DHT22;3657;49.630;11.018;2023-02-28T15:05:26;4.80;98.10
7232;DHT22;3657;49.630;11.018;2023-02-28T15:08:06;4.90;99.90
7232;DHT22;3657;49.630;11.018;2023-02-28T15:10:36;4.90;99.90
7232;DHT22;3657;49.630;11.018;2023-02-28T15:13:06;4.80;99.90
7232;DHT22;3657;49.630;11.018;2023-02-28T15:15:40;4.60;98.30
7232;DHT22;3657;49.630;11.018;2023-02-28T15:18:13;4.50;99.10
7232;DHT22;3657;49.630;11.018;2023-02-28T15:20:43;4.50;99.90
7232;DHT22;3657;49.630;11.018;2023-02-28T15:23:11;4.60;99.90
7232;DHT22;3657;49.630;11.018;2023-02-28T15:25:38;4.50;98.60
7232;DHT22;3657;49.630;11.018;2023-02-28T15:28:12;4.50;96.90
7232;DHT22;3657;49.630;11.018;2023-02-28T15:30:54;4.50;97.50
7232;DHT22;3657;49.630;11.018;2023-02-28T15:33:23;4.50;96.40
7232;DHT22;3657;49.630;11.018;2023-02-28T15:36:02;4.50;98.60
7232;DHT22;3657;49.630;11.018;2023-02-28T15:38:34;4.50;99.70
7232;DHT22;3657;49.630;11.018;2023-02-28T15:41:01;4.40;99.00
7232;DHT22;3657;49.630;11.018;2023-02-28T15:43:34;4.40;99.90
7232;DHT22;3657;49.630;11.018;2023-02-28T15:46:03;4.30;97.30
7232;DHT22;3657;49.630;11.018;2023-02-28T15:48:33;4.30;99.00
7232;DHT22;3657;49.630;11.018;2023-02-28T15:51:06;4.30;97.30
7232;DHT22;3657;49.630;11.018;2023-02-28T15:53:36;4.30;98.80
7232;DHT22;3657;49.630;11.018;2023-02-28T15:56:05;4.20;96.70
7232;DHT22;3657;49.630;11.018;2023-02-28T15:58:35;4.20;98.60
7232;DHT22;3657;49.630;11.018;2023-02-28T16:01:08;4.20;99.90
7232;DHT22;3657;49.630;11.018;2023-02-28T16:03:44;4.10;98.00
7232;DHT22;3657;49.630;11.018;2023-02-28T16:06:35;4.10;99.90
7232;DHT22;3657;49.630;11.018;2023-02-28T16:09:03;4.00;99.90
7232;DHT22;3657;49.630;11.018;2023-02-28T16:11:33;4.00;99.90
7232;DHT22;3657;49.630;11.018;2023-02-28T16:14:01;3.90;99.10
7232;DHT22;3657;49.630;11.018;2023-02-28T16:16:28;3.90;99.90
7232;DHT22;3657;49.630;11.018;2023-02-28T16:18:55;3.80;99.90
7232;DHT22;3657;49.630;11.018;2023-02-28T16:21:22;3.80;99.90
7232;DHT22;3657;49.630;11.018;2023-02-28T16:23:51;3.80;99.50
7232;DHT22;3657;49.630;11.018;2023-02-28T16:26:21;3.70;99.20
7232;DHT22;3657;49.630;11.018;2023-02-28T16:28:48;3.70;97.70
7232;DHT22;3657;49.630;11.018;2023-02-28T16:31:15;3.70;99.90
7232;DHT22;3657;49.630;11.018;2023-02-28T16:33:43;3.60;98.90